createdAt,value
2023-02-18T00:01:13.017Z,8.90
2023-02-18T00:03:42.859Z,9.93
2023-02-18T00:06:23.794Z,10.60
2023-02-18T00:08:51.365Z,11.50
2023-02-18T00:11:20.830Z,11.77
2023-02-18T00:13:52.335Z,10.88
2023-02-18T00:16:19.357Z,10.35
2023-02-18T00:18:46.165Z,9.35
2023-02-18T00:21:12.930Z,9.93
2023-02-18T00:23:43.991Z,8.43
2023-02-18T00:26:16.440Z,8.70
2023-02-18T00:28:43.590Z,8.48
2023-02-18T00:31:15.985Z,8.68
2023-02-18T00:33:42.630Z,8.70
2023-02-18T00:36:15.279Z,8.45
2023-02-18T00:38:49.996Z,8.68
2023-02-18T00:41:17.678Z,8.88
2023-02-18T00:43:44.480Z,8.82
2023-02-18T00:46:14.429Z,8.75
2023-02-18T00:48:44.516Z,8.20
2023-02-18T00:51:14.418Z,8.38
2023-02-18T00:53:45.032Z,8.60
2023-02-18T00:56:15.294Z,8.48
2023-02-18T00:58:44.861Z,8.93
2023-02-18T01:01:18.133Z,9.38
2023-02-18T01:03:45.149Z,9.05
2023-02-18T01:06:14.931Z,8.80
2023-02-18T01:08:46.688Z,8.73
2023-02-18T01:11:15.238Z,9.63
2023-02-18T01:13:43.690Z,8.73
2023-02-18T01:16:13.212Z,7.68
2023-02-18T01:18:40.770Z,7.75
2023-02-18T01:21:08.970Z,8.48
2023-02-18T01:23:40.154Z,8.48
2023-02-18T01:26:07.478Z,7.75
2023-02-18T01:28:34.451Z,8.18
2023-02-18T01:31:09.723Z,9.20
2023-02-18T01:33:36.828Z,7.85
2023-02-18T01:36:04.078Z,7.88
2023-02-18T01:38:30.643Z,8.07
2023-02-18T01:40:57.220Z,8.45
2023-02-18T01:43:24.119Z,8.02
2023-02-18T01:46:18.317Z,8.38
2023-02-18T01:48:51.633Z,7.00
2023-02-18T01:51:23.828Z,6.63
2023-02-18T01:54:21.574Z,7.28
2023-02-18T01:56:53.726Z,7.88
2023-02-18T01:59:31.801Z,8.50
2023-02-18T02:01:58.737Z,8.20
2023-02-18T02:04:25.835Z,7.82
2023-02-18T02:06:52.374Z,9.20
2023-02-18T02:09:22.408Z,8.77
2023-02-18T02:12:01.808Z,8.13
2023-02-18T02:15:07.128Z,7.35
2023-02-18T02:17:33.548Z,7.07
2023-02-18T02:20:24.966Z,8.18
2023-02-18T02:23:05.538Z,7.57
2023-02-18T02:26:09.785Z,6.53
2023-02-18T02:28:47.641Z,9.10
2023-02-18T02:31:23.133Z,9.27
2023-02-18T02:34:19.551Z,8.80
2023-02-18T02:37:10.425Z,6.78
2023-02-18T02:39:57.626Z,7.63
2023-02-18T02:42:38.673Z,6.75
2023-02-18T02:45:17.766Z,5.57
2023-02-18T02:48:19.132Z,5.20
2023-02-18T02:51:15.143Z,5.20
2023-02-18T02:53:43.513Z,5.28
2023-02-18T02:56:19.255Z,7.00
2023-02-18T02:58:54.747Z,8.00
2023-02-18T03:01:30.581Z,8.63
2023-02-18T03:04:09.297Z,8.20
2023-02-18T03:06:38.766Z,8.63
2023-02-18T03:09:21.849Z,8.00
2023-02-18T03:12:22.358Z,8.02
2023-02-18T03:15:11.216Z,7.80
2023-02-18T03:17:45.606Z,8.77
2023-02-18T03:20:31.656Z,8.80
2023-02-18T03:23:01.535Z,9.65
2023-02-18T03:25:29.440Z,8.57
2023-02-18T03:28:00.136Z,8.23
2023-02-18T03:30:35.094Z,8.13
2023-02-18T03:33:06.266Z,7.85
2023-02-18T03:35:32.893Z,8.32
2023-02-18T03:38:38.078Z,7.35
2023-02-18T03:41:05.565Z,6.43
2023-02-18T03:43:32.212Z,7.30
2023-02-18T03:45:59.121Z,5.85
2023-02-18T03:48:26.670Z,6.25
2023-02-18T03:50:53.243Z,6.85
2023-02-18T03:53:22.454Z,7.07
2023-02-18T03:55:48.985Z,6.43
2023-02-18T03:58:15.491Z,7.03
2023-02-18T04:00:41.957Z,6.70
2023-02-18T04:03:08.519Z,6.40
2023-02-18T04:05:35.096Z,5.72
2023-02-18T04:08:01.589Z,5.95
2023-02-18T04:10:28.146Z,5.75
2023-02-18T04:12:54.732Z,5.45
2023-02-18T04:15:23.306Z,5.97
2023-02-18T04:17:50.016Z,5.75
2023-02-18T04:20:16.766Z,5.25
2023-02-18T04:22:43.354Z,6.22
2023-02-18T04:25:09.939Z,6.97
2023-02-18T04:27:36.474Z,5.70
2023-02-18T04:30:04.627Z,5.97
2023-02-18T04:32:31.281Z,5.30
2023-02-18T04:34:57.769Z,5.50
2023-02-18T04:37:27.418Z,5.22
2023-02-18T04:39:56.927Z,6.82
2023-02-18T04:42:27.019Z,6.53
2023-02-18T04:44:56.753Z,5.03
2023-02-18T04:47:25.956Z,4.00
2023-02-18T04:49:52.452Z,3.83
2023-02-18T04:52:19.549Z,4.38
2023-02-18T04:54:46.247Z,3.30
2023-02-18T04:57:13.017Z,3.92
2023-02-18T04:59:39.620Z,4.05
2023-02-18T05:02:06.246Z,5.28
2023-02-18T05:04:32.833Z,5.63
2023-02-18T05:06:59.352Z,5.05
2023-02-18T05:09:28.771Z,4.70
2023-02-18T05:11:58.048Z,4.32
2023-02-18T05:14:26.695Z,4.47
2023-02-18T05:16:53.230Z,4.53
2023-02-18T05:19:19.730Z,4.65
2023-02-18T05:21:46.265Z,5.13
2023-02-18T05:24:12.811Z,4.53
2023-02-18T05:26:39.336Z,4.05
2023-02-18T05:29:06.131Z,3.85
2023-02-18T05:31:32.779Z,3.95
2023-02-18T05:33:59.383Z,3.72
2023-02-18T05:36:28.711Z,3.42
2023-02-18T05:38:58.183Z,3.60
2023-02-18T05:41:24.784Z,3.08
2023-02-18T05:44:09.830Z,3.28
2023-02-18T05:46:36.433Z,3.05
2023-02-18T05:49:02.989Z,2.53
2023-02-18T05:51:29.604Z,2.60
2023-02-18T05:53:58.635Z,2.40
2023-02-18T05:56:25.208Z,2.40
2023-02-18T05:58:51.708Z,2.33
2023-02-18T06:01:18.278Z,2.58
2023-02-18T06:03:44.795Z,2.65
2023-02-18T06:06:11.747Z,2.00
2023-02-18T06:08:38.867Z,2.60
2023-02-18T06:11:05.413Z,2.33
2023-02-18T06:13:32.036Z,2.88
2023-02-18T06:16:01.728Z,2.50
2023-02-18T06:18:32.340Z,2.60
2023-02-18T06:21:02.019Z,3.10
2023-02-18T06:23:32.999Z,3.50
2023-02-18T06:25:59.764Z,2.90
2023-02-18T06:28:28.682Z,2.85
2023-02-18T06:31:00.527Z,3.65
2023-02-18T06:33:30.750Z,2.70
2023-02-18T06:36:03.717Z,2.58
2023-02-18T06:38:30.634Z,3.10
2023-02-18T06:41:02.107Z,2.58
2023-02-18T06:43:29.738Z,2.88
2023-02-18T06:46:01.306Z,2.67
2023-02-18T06:48:31.099Z,2.75
2023-02-18T06:51:00.704Z,3.10
2023-02-18T06:53:30.253Z,2.92
2023-02-18T06:56:01.601Z,2.70
2023-02-18T06:58:31.292Z,2.45
2023-02-18T07:01:01.779Z,2.28
2023-02-18T07:03:31.480Z,2.17
2023-02-18T07:06:01.593Z,2.42
2023-02-18T07:08:33.274Z,2.30
2023-02-18T07:11:00.008Z,2.30
2023-02-18T07:13:29.360Z,2.53
2023-02-18T07:15:58.288Z,2.88
2023-02-18T07:18:24.815Z,2.20
2023-02-18T07:20:51.525Z,2.28
2023-02-18T07:23:18.002Z,2.83
2023-02-18T07:25:44.708Z,3.10
2023-02-18T07:28:11.316Z,3.33
2023-02-18T07:30:37.889Z,2.78
2023-02-18T07:33:04.452Z,3.05
2023-02-18T07:35:31.103Z,3.13
2023-02-18T07:38:03.202Z,4.20
2023-02-18T07:40:30.153Z,4.60
2023-02-18T07:43:01.221Z,4.38
2023-02-18T07:45:30.815Z,4.93
2023-02-18T07:48:00.872Z,5.15
2023-02-18T07:50:28.834Z,5.43
2023-02-18T07:52:56.497Z,5.30
2023-02-18T07:55:23.093Z,4.88
2023-02-18T07:58:00.999Z,5.90
2023-02-18T08:00:30.962Z,5.45
2023-02-18T08:02:58.745Z,5.72
2023-02-18T08:05:25.303Z,5.72
2023-02-18T08:07:51.832Z,5.45
2023-02-18T08:10:18.369Z,5.82
2023-02-18T08:12:44.877Z,5.47
2023-02-18T08:15:11.463Z,5.57
2023-02-18T08:17:38.000Z,5.43
2023-02-18T08:20:05.483Z,6.43
2023-02-18T08:22:32.006Z,4.78
2023-02-18T08:24:58.850Z,5.93
2023-02-18T08:27:28.255Z,5.97
2023-02-18T08:29:58.244Z,6.07
2023-02-18T08:32:30.706Z,5.75
2023-02-18T08:35:03.429Z,5.85
2023-02-18T08:37:30.092Z,5.72
2023-02-18T08:40:16.802Z,5.45
2023-02-18T08:42:43.298Z,5.50
2023-02-18T08:45:09.813Z,5.47
2023-02-18T08:48:16.783Z,5.40
2023-02-18T08:50:28.563Z,5.72
2023-02-18T08:52:59.387Z,5.63
2023-02-18T08:55:28.512Z,5.38
2023-02-18T08:57:55.036Z,5.70
2023-02-18T09:00:22.074Z,5.60
2023-02-18T09:02:48.795Z,5.93
2023-02-18T09:05:15.913Z,5.78
2023-02-18T09:07:42.765Z,7.05
2023-02-18T09:10:10.397Z,6.47
2023-02-18T09:12:42.827Z,6.18
2023-02-18T09:15:09.660Z,7.68
2023-02-18T09:17:36.239Z,7.60
2023-02-18T09:20:04.192Z,7.28
2023-02-18T09:22:32.931Z,7.65
2023-02-18T09:24:59.640Z,9.45
2023-02-18T09:27:28.538Z,9.07
2023-02-18T09:29:55.200Z,9.43
2023-02-18T09:32:33.712Z,8.60
2023-02-18T09:35:01.919Z,8.30
2023-02-18T09:37:32.128Z,7.72
2023-02-18T09:40:00.286Z,8.02
2023-02-18T09:42:33.430Z,7.07
2023-02-18T09:45:06.959Z,7.20
2023-02-18T09:47:36.240Z,6.65
2023-02-18T09:50:19.258Z,6.35
2023-02-18T09:52:46.220Z,7.05
2023-02-18T09:55:33.678Z,6.75
2023-02-18T09:58:04.733Z,7.05
2023-02-18T10:00:41.205Z,6.20
2023-02-18T10:03:20.660Z,6.28
2023-02-18T10:06:02.789Z,5.55
2023-02-18T10:08:35.439Z,5.35
2023-02-18T10:11:02.514Z,5.43
2023-02-18T10:13:33.131Z,5.45
2023-02-18T10:16:00.332Z,5.82
2023-02-18T10:21:15.268Z,2.95
2023-02-18T10:23:50.684Z,3.00
2023-02-18T10:26:18.481Z,3.33
2023-02-18T10:28:46.077Z,3.63
2023-02-18T10:31:20.558Z,2.97
2023-02-18T10:33:58.587Z,3.22
2023-02-18T10:36:27.921Z,3.33
2023-02-18T10:39:20.874Z,3.50
2023-02-18T10:42:05.372Z,2.67
2023-02-18T10:44:59.743Z,3.15
2023-02-18T10:47:32.164Z,2.92
2023-02-18T10:50:28.727Z,2.38
2023-02-18T10:52:58.961Z,1.20
2023-02-18T10:55:41.022Z,1.50
2023-02-18T10:58:36.651Z,0.90
2023-02-18T11:01:08.610Z,0.80
2023-02-18T11:03:50.272Z,2.05
2023-02-18T11:06:40.817Z,0.50
2023-02-18T11:09:20.913Z,1.20
2023-02-18T11:11:50.633Z,1.33
2023-02-18T11:14:43.393Z,0.70
2023-02-18T11:17:17.615Z,1.95
2023-02-18T11:19:53.207Z,1.48
2023-02-18T11:22:23.451Z,1.73
2023-02-18T11:24:58.366Z,1.70
2023-02-18T11:27:30.237Z,1.80
2023-02-18T11:30:05.317Z,1.15
2023-02-18T11:32:35.940Z,1.30
2023-02-18T11:35:04.993Z,1.20
2023-02-18T11:37:35.650Z,2.10
2023-02-18T11:40:02.363Z,1.50
2023-02-18T11:42:29.239Z,0.90
2023-02-18T11:44:58.967Z,1.30
2023-02-18T11:47:35.780Z,1.30
2023-02-18T11:50:08.156Z,1.55
2023-02-18T11:52:42.393Z,1.70
2023-02-18T11:55:17.076Z,1.40
2023-02-18T11:57:51.085Z,2.60
2023-02-18T12:00:44.734Z,1.00
2023-02-18T12:03:40.588Z,2.40
2023-02-18T12:06:35.785Z,1.10
2023-02-18T12:09:35.250Z,0.40
2023-02-18T12:12:06.922Z,3.45
2023-02-18T12:14:33.561Z,0.30
2023-02-18T12:17:15.877Z,0.50
2023-02-18T12:20:10.573Z,0.77
2023-02-18T12:22:44.229Z,5.03
2023-02-18T12:25:24.731Z,3.33
2023-02-18T12:28:00.616Z,4.32
2023-02-18T12:30:43.937Z,2.00
2023-02-18T12:33:22.387Z,2.05
2023-02-18T12:35:52.409Z,1.42
2023-02-18T12:38:30.463Z,2.13
2023-02-18T12:41:34.003Z,6.75
2023-02-18T12:44:19.066Z,4.25
2023-02-18T12:46:45.838Z,2.97
2023-02-18T12:49:48.008Z,3.03
2023-02-18T12:52:59.575Z,2.60
2023-02-18T12:56:12.708Z,2.30
2023-02-18T12:59:14.589Z,3.28
2023-02-18T13:02:18.316Z,2.40
2023-02-18T13:04:50.835Z,2.80
2023-02-18T13:07:32.488Z,3.20
2023-02-18T13:10:09.823Z,2.85
2023-02-18T13:13:03.348Z,2.83
2023-02-18T13:15:34.369Z,3.65
2023-02-18T13:18:10.677Z,2.80
2023-02-18T13:20:42.460Z,2.78
2023-02-18T13:23:18.719Z,2.72
2023-02-18T13:25:46.805Z,2.67
2023-02-18T13:28:31.764Z,3.45
2023-02-18T13:31:06.858Z,2.90
2023-02-18T13:33:36.470Z,3.10
2023-02-18T13:36:11.833Z,3.10
2023-02-18T13:39:09.174Z,2.97
2023-02-18T13:41:41.823Z,2.60
2023-02-18T13:44:29.382Z,2.80
2023-02-18T13:46:58.946Z,2.97
2023-02-18T13:49:32.769Z,3.92
2023-02-18T13:52:04.660Z,3.08
2023-02-18T13:54:41.945Z,3.17
2023-02-18T13:57:21.837Z,3.25
2023-02-18T13:59:58.178Z,3.22
2023-02-18T14:02:27.648Z,3.67
2023-02-18T14:05:09.423Z,3.83
2023-02-18T14:07:36.197Z,3.58
2023-02-18T14:10:36.428Z,3.58
2023-02-18T14:13:39.789Z,3.60
2023-02-18T14:16:07.265Z,4.90
2023-02-18T14:18:39.768Z,2.90
2023-02-18T14:21:12.152Z,2.45
2023-02-18T14:23:39.053Z,2.80
2023-02-18T14:26:06.605Z,2.50
2023-02-18T14:29:00.203Z,4.22
2023-02-18T14:31:47.561Z,3.15
2023-02-18T14:34:29.331Z,2.75
2023-02-18T14:37:09.927Z,2.92
2023-02-18T14:39:50.291Z,2.90
2023-02-18T14:42:25.796Z,2.80
2023-02-18T14:45:04.519Z,2.50
2023-02-18T14:47:49.922Z,2.67
2023-02-18T14:50:19.683Z,3.90
2023-02-18T14:52:49.899Z,2.88
2023-02-18T14:55:24.793Z,2.83
2023-02-18T14:57:56.275Z,3.10
2023-02-18T15:00:25.585Z,2.70
2023-02-18T15:02:55.149Z,2.60
2023-02-18T15:05:29.690Z,2.60
2023-02-18T15:08:00.560Z,2.42
2023-02-18T15:11:07.424Z,2.67
2023-02-18T15:13:44.233Z,2.50
2023-02-18T15:16:37.093Z,2.70
2023-02-18T15:19:13.624Z,2.60
2023-02-18T15:21:43.828Z,2.63
2023-02-18T15:24:21.014Z,2.60
2023-02-18T15:26:51.868Z,2.58
2023-02-18T15:29:24.696Z,2.60
2023-02-18T15:31:51.965Z,2.60
2023-02-18T15:34:39.207Z,2.40
2023-02-18T15:37:11.772Z,2.50
2023-02-18T15:39:41.383Z,2.65
2023-02-18T15:42:16.951Z,2.55
2023-02-18T15:44:49.203Z,2.50
2023-02-18T15:47:17.560Z,2.90
2023-02-18T15:49:55.699Z,2.60
2023-02-18T15:52:38.743Z,2.47
2023-02-18T15:55:15.376Z,2.63
2023-02-18T15:57:42.454Z,3.05
2023-02-18T16:00:28.494Z,3.05
2023-02-18T16:03:04.734Z,2.78
2023-02-18T16:05:34.812Z,2.70
2023-02-18T16:08:07.232Z,2.75
2023-02-18T16:10:36.927Z,2.72
2023-02-18T16:13:06.749Z,2.90
2023-02-18T16:15:43.362Z,3.20
2023-02-18T16:18:29.619Z,2.90
2023-02-18T16:21:01.405Z,2.70
2023-02-18T16:23:42.318Z,2.70
2023-02-18T16:26:17.984Z,2.90
2023-02-18T16:28:45.717Z,3.00
2023-02-18T16:31:12.434Z,2.90
2023-02-18T16:33:39.094Z,2.50
2023-02-18T16:36:16.363Z,3.05
2023-02-18T16:38:45.162Z,2.70
2023-02-18T16:41:13.500Z,2.80
2023-02-18T16:43:40.706Z,2.80
2023-02-18T16:46:19.155Z,2.50
2023-02-18T16:48:49.579Z,2.90
2023-02-18T16:51:32.927Z,2.88
2023-02-18T16:53:59.639Z,2.60
2023-02-18T16:56:32.244Z,3.83
2023-02-18T16:58:58.961Z,3.25
2023-02-18T17:01:32.978Z,2.80
2023-02-18T17:04:01.067Z,2.70
2023-02-18T17:06:28.139Z,2.90
2023-02-18T17:08:54.994Z,2.70
2023-02-18T17:11:25.955Z,2.70
2023-02-18T17:13:54.398Z,2.60
2023-02-18T17:16:21.742Z,4.70
2023-02-18T17:18:48.334Z,2.35
2023-02-18T17:21:16.703Z,1.92
2023-02-18T17:23:43.777Z,0.60
2023-02-18T17:26:18.616Z,0.85
2023-02-18T17:28:45.340Z,6.80
2023-02-18T17:31:26.103Z,1.85
2023-02-18T17:33:54.941Z,2.30
2023-02-18T17:36:21.656Z,19.40
2023-02-18T17:38:49.425Z,7.32
2023-02-18T17:41:16.113Z,2.72
2023-02-18T17:43:42.980Z,4.47
2023-02-18T17:46:14.918Z,3.25
2023-02-18T17:48:42.574Z,1.33
2023-02-18T17:51:26.267Z,0.93
2023-02-18T17:53:52.977Z,0.90
2023-02-18T17:56:19.701Z,1.10
2023-02-18T17:58:48.979Z,0.70
2023-02-18T18:01:17.161Z,0.68
2023-02-18T18:03:44.303Z,0.60
2023-02-18T18:06:16.996Z,0.77
2023-02-18T18:08:49.893Z,0.52
2023-02-18T18:11:25.269Z,0.73
2023-02-18T18:13:55.786Z,0.80
2023-02-18T18:16:22.749Z,1.00
2023-02-18T18:18:49.406Z,0.90
2023-02-18T18:21:36.388Z,0.98
2023-02-18T18:24:04.290Z,1.33
2023-02-18T18:26:41.021Z,1.40
2023-02-18T18:29:12.516Z,1.60
2023-02-18T18:31:39.490Z,1.92
2023-02-18T18:34:09.799Z,3.15
2023-02-18T18:36:39.177Z,3.22
2023-02-18T18:39:07.660Z,2.75
2023-02-18T18:41:37.621Z,3.03
2023-02-18T18:44:07.300Z,3.15
2023-02-18T18:46:42.234Z,2.42
2023-02-18T18:49:08.820Z,2.13
2023-02-18T18:51:38.178Z,2.15
2023-02-18T18:54:07.179Z,2.92
2023-02-18T18:56:33.873Z,2.10
2023-02-18T18:59:00.526Z,2.10
2023-02-18T19:01:28.853Z,1.75
2023-02-18T19:03:55.799Z,1.85
2023-02-18T19:06:22.438Z,2.80
2023-02-18T19:08:49.049Z,2.42
2023-02-18T19:11:16.801Z,2.35
2023-02-18T19:13:49.193Z,2.15
2023-02-18T19:16:29.940Z,2.08
2023-02-18T19:18:56.724Z,2.25
2023-02-18T19:21:23.267Z,2.80
2023-02-18T19:23:49.815Z,3.55
2023-02-18T19:26:16.979Z,3.58
2023-02-18T19:28:44.500Z,2.75
2023-02-18T19:31:11.633Z,2.97
2023-02-18T19:33:39.349Z,3.25
2023-02-18T19:36:10.798Z,3.50
2023-02-18T19:38:40.297Z,2.83
2023-02-18T19:41:10.335Z,3.08
2023-02-18T19:43:41.466Z,2.08
2023-02-18T19:46:13.494Z,3.03
2023-02-18T19:48:40.557Z,3.72
2023-02-18T19:51:10.917Z,3.78
2023-02-18T19:53:38.072Z,4.53
2023-02-18T19:56:09.785Z,4.25
2023-02-18T19:58:41.927Z,3.55
2023-02-18T20:01:16.069Z,3.88
2023-02-18T20:03:43.313Z,4.07
2023-02-18T20:06:20.356Z,3.50
2023-02-18T20:08:47.157Z,3.60
2023-02-18T20:11:13.745Z,3.33
2023-02-18T20:13:40.306Z,4.03
2023-02-18T20:16:10.645Z,3.83
2023-02-18T20:18:37.984Z,3.45
2023-02-18T20:21:06.531Z,4.10
2023-02-18T20:23:39.176Z,3.63
2023-02-18T20:26:11.667Z,2.88
2023-02-18T20:28:41.373Z,3.38
2023-02-18T20:31:12.905Z,5.38
2023-02-18T20:33:42.275Z,4.82
2023-02-18T20:36:09.788Z,3.20
2023-02-18T20:38:39.520Z,3.35
2023-02-18T20:41:14.534Z,3.85
2023-02-18T20:43:41.378Z,2.70
2023-02-18T20:46:12.365Z,2.42
2023-02-18T20:48:39.431Z,3.10
2023-02-18T20:51:14.723Z,2.90
2023-02-18T20:53:42.665Z,2.90
2023-02-18T20:56:09.807Z,2.22
2023-02-18T20:58:42.234Z,2.80
2023-02-18T21:01:12.155Z,2.70
2023-02-18T21:03:39.446Z,3.50
2023-02-18T21:06:11.793Z,3.53
2023-02-18T21:08:40.513Z,3.30
2023-02-18T21:11:11.131Z,3.22
2023-02-18T21:13:39.189Z,3.67
2023-02-18T21:16:09.333Z,3.75
2023-02-18T21:18:37.762Z,2.83
2023-02-18T21:21:09.310Z,3.35
2023-02-18T21:23:38.113Z,3.47
2023-02-18T21:26:09.565Z,3.33
2023-02-18T21:28:37.043Z,3.50
2023-02-18T21:31:04.322Z,3.50
2023-02-18T21:33:31.025Z,2.85
2023-02-18T21:36:01.225Z,2.75
2023-02-18T21:38:27.727Z,2.92
2023-02-18T21:40:54.220Z,3.28
2023-02-18T21:43:20.695Z,2.70
2023-02-18T21:45:47.216Z,2.47
2023-02-18T21:48:32.325Z,3.65
2023-02-18T21:51:02.335Z,3.00
2023-02-18T21:53:28.831Z,2.70
2023-02-18T21:56:03.267Z,3.17
2023-02-18T21:58:30.238Z,3.58
2023-02-18T22:00:58.167Z,2.83
2023-02-18T22:03:24.837Z,3.28
2023-02-18T22:05:51.417Z,2.97
2023-02-18T22:08:18.031Z,3.03
2023-02-18T22:10:44.539Z,2.78
2023-02-18T22:13:11.033Z,3.05
2023-02-18T22:15:42.067Z,2.70
2023-02-18T22:18:12.470Z,2.30
2023-02-18T22:20:40.545Z,2.42
2023-02-18T22:23:08.041Z,2.53
2023-02-18T22:25:35.336Z,2.97
2023-02-18T22:28:01.805Z,2.55
2023-02-18T22:30:28.314Z,3.45
2023-02-18T22:32:54.825Z,3.40
2023-02-18T22:35:21.350Z,4.38
2023-02-18T22:37:47.889Z,4.32
2023-02-18T22:40:14.429Z,3.55
2023-02-18T22:42:40.905Z,2.95
2023-02-18T22:45:12.068Z,2.30
2023-02-18T22:47:42.819Z,2.42
2023-02-18T22:50:13.881Z,2.47
2023-02-18T22:52:42.151Z,1.80
2023-02-18T22:55:11.045Z,2.45
2023-02-18T22:57:37.548Z,2.63
2023-02-18T23:00:10.018Z,2.60
2023-02-18T23:02:36.983Z,1.98
2023-02-18T23:05:03.519Z,2.78
2023-02-18T23:07:30.342Z,2.42
2023-02-18T23:09:56.836Z,2.15
2023-02-18T23:12:24.196Z,2.20
2023-02-18T23:14:50.697Z,2.42
2023-02-18T23:17:17.780Z,2.90
2023-02-18T23:19:44.365Z,2.42
2023-02-18T23:22:19.521Z,2.90
2023-02-18T23:24:47.116Z,2.45
2023-02-18T23:27:15.198Z,2.53
2023-02-18T23:29:44.737Z,3.08
2023-02-18T23:32:13.380Z,2.78
2023-02-18T23:34:40.169Z,3.45
2023-02-18T23:37:06.776Z,3.00
2023-02-18T23:39:34.036Z,2.40
2023-02-18T23:42:00.838Z,2.80
2023-02-18T23:44:28.205Z,3.60
2023-02-18T23:46:54.888Z,3.25
2023-02-18T23:49:26.121Z,3.30
2023-02-18T23:51:54.892Z,3.03
2023-02-18T23:54:21.838Z,2.90
2023-02-18T23:56:48.531Z,2.45
2023-02-18T23:59:15.416Z,2.70
